Terminal Aerodrome Forecast
Issued by NWS

Home | Current Version | Previous Version | Text Only | Print | Product List | Glossary On
Versions: 1 2 3 4 5 6 7 8 9 10 11 12 13 14 15 16 17 18 19 20
000
FTUS46 KOTX 191740
TAFPUW
TAF
KPUW 191740Z 1918/2018 20006KT P6SM FEW035 SCT070 BKN150
     FM192000 24011KT P6SM SCT030 BKN070
     FM200100 16007KT P6SM SCT060 OVC150
     FM200900 14012KT P6SM VCSH SCT025 OVC040
     FM201400 22009KT P6SM VCSH BKN015 OVC030=

USA.gov is the U.S. government's official web portal to all federal, state and local government web resources and services.